Weather at St Margarets Hospital Heliport

Public forecast

Using degrees Fahrenheit for public forecast. Weather courtesy of forecast.io.

Closest aviation weather report (METAR) to St Margarets Hospital Heliport

Closest report is Illinois Valley Regional Airport-Walter A Duncan Field, 2.6 nm (4.8 km) NE. Retrieved 2021/09/19 18:35 UTC (16 minutes ago):

KVYS 191835Z AUTO 14005KT 10SM BKN060 BKN090 32/17 A3003 RMK AO2 T03170167

Closest aviation forecast (TAF) to St Margarets Hospital Heliport

Closest forecast is General Wayne A. Downing Peoria International Airport, 45.6 nm (84.4 km) SSW. Retrieved 2021/09/19 18:48 UTC (3 minutes ago):

TAF KPIA 191746Z 1918/2018 18004KT P6SM SKC FM191900 16010KT P6SM SCT050 BKN250 FM200800 16010KT P6SM BKN020 FM201200 16007KT 6SM BR BKN008 FM201700 18010KT P6SM BKN015